South Purmela, Texas
Current Conditions -  °F | °C
As of 5:55 AM on Monday 24 Nov 2014 (Local Time) from KGOP Reporting Station
Clear Clear  
Wind Chill: 45°   Ceiling: Unl
Heat Index: 45°   Visibility: 10mi
Dew Point: 36°   Wind: 3mph
Humidity: 71%   Direction: 300°WNW
Pressure: 30.01"   Gusts: NA
Location:  31.4714°N, 97.9089°W
Report Text: KGOP 241155Z AUTO 30003KT 10SM CLR 07/02 A3001 RMK AO2 PWINO
Loading
Personal Weather Stations






























Interactive Weather Map New forecast layout! Learn more

10-Day Weather Forecast

Advertisements
Track Severe Weather on mobile